Airfield :
LOGIN :

Register | Disclaimer

   EN    FR    IT 

 










Legend :    VFR   Marginal VFR   IFR   Intensive IFR   Very Intensive IFR
Visi :
Ceiling :
>= 8 km
>= 3000ft
5 to 8 km
1000 to 3000 ft
1500m to 5 km
500 to 1000 ft
800 to 1500m
200 to 500 ft
< 800m
< 200 ft
Symbols :   Thunderstorms  Fog  Heavy snow  Heavy precipitations  Wind > 20 kt
SIGMETs :     Misc.  Thunderstorms  Icing  Turbulence  Mountain Waves  Volcanic Ashes






- Airport Elevation : 1411 ft
- IATA code : SZG


LOWS - Salzburg

CURRENT METAR :
  • 290750Z 16002KT 9000 -DZ FEW004 BKN060 03/03 Q1016 NOSIG

EXPIRED METARs :
  • 290720Z 08002KT 8000 -DZ FEW004 BKN050 03/03 Q1016 NOSIG
  • 290650Z VRB01KT 7000 -RADZ FEW003 SCT032 BKN050 03/03 Q1016 NOSIG
  • 290620Z VRB01KT 6000 -DZRA FEW003 BKN050 03/02 Q1016 NOSIG
  • 290550Z VRB01KT 9000 -DZRA FEW003 SCT022 BKN042 03/02 Q1016 NOSIG
  • 290520Z VRB01KT 6000 -RADZ FEW004 SCT022 BKN046 02/02 Q1016 TEMPO 4000 -RADZ

TAF TAF LOWS
Valid from the 29 at 06:00 until the 30 at 06:00 UTC


290515Z 2906/3006 VRB02KT 9999 FEW012 BKN030 TX03/2914Z TN00/3004Z
TEMPO 2906/2918 4000 -RADZ
PROB30
TEMPO 2906/2909 4000 DZRA FEW006 BKN012
BECMG 2908/2910 34005KT
TEMPO 2918/3001 2500 BKN009
TEMPO 3001/3006 0700 FG BKN004



MET'MAP, your aeronautical weather chart ! - Copyright ORBIFLY December 2007 - Disclaimer

ORBIFLY MET'MAP TEAM :

Programming & Development : Alexandra Zaïnal
Original concept : Baudouin d'Aumeries
Technical & hardware support : Manuel Goepfert
Assistance : Marc-Olivier Méhu




SOURCES & CREDITS :

   NOAA